sensor_id;sensor_type;location;lat;lon;timestamp;P1;durP1;ratioP1;P2;durP2;ratioP2
37411;SDS011;23278;52.110;6.050;2022-08-02T00:01:41;0.88;;;0.30;;
37411;SDS011;23278;52.110;6.050;2022-08-02T00:04:08;0.30;;;0.30;;
37411;SDS011;23278;52.110;6.050;2022-08-02T00:06:34;3.35;;;1.05;;
37411;SDS011;23278;52.110;6.050;2022-08-02T00:09:01;0.98;;;0.40;;
37411;SDS011;23278;52.110;6.050;2022-08-02T00:11:27;1.30;;;0.82;;
37411;SDS011;23278;52.110;6.050;2022-08-02T00:13:53;0.90;;;0.30;;
37411;SDS011;23278;52.110;6.050;2022-08-02T00:16:19;0.85;;;0.30;;
37411;SDS011;23278;52.110;6.050;2022-08-02T00:18:45;0.75;;;0.30;;
37411;SDS011;23278;52.110;6.050;2022-08-02T00:21:11;0.65;;;0.40;;
37411;SDS011;23278;52.110;6.050;2022-08-02T00:23:37;1.20;;;0.40;;
37411;SDS011;23278;52.110;6.050;2022-08-02T00:26:03;0.93;;;0.28;;
37411;SDS011;23278;52.110;6.050;2022-08-02T00:28:29;1.15;;;0.38;;
37411;SDS011;23278;52.110;6.050;2022-08-02T00:30:55;0.75;;;0.35;;
37411;SDS011;23278;52.110;6.050;2022-08-02T00:33:22;1.95;;;0.40;;
37411;SDS011;23278;52.110;6.050;2022-08-02T00:35:48;0.70;;;0.30;;
37411;SDS011;23278;52.110;6.050;2022-08-02T00:38:14;0.25;;;0.22;;
37411;SDS011;23278;52.110;6.050;2022-08-02T00:40:40;1.63;;;0.30;;
37411;SDS011;23278;52.110;6.050;2022-08-02T00:43:11;1.55;;;1.20;;
37411;SDS011;23278;52.110;6.050;2022-08-02T00:45:38;0.70;;;0.30;;
37411;SDS011;23278;52.110;6.050;2022-08-02T00:48:06;1.15;;;0.35;;
37411;SDS011;23278;52.110;6.050;2022-08-02T00:50:33;1.17;;;0.73;;
37411;SDS011;23278;52.110;6.050;2022-08-02T00:53:00;0.75;;;0.30;;
37411;SDS011;23278;52.110;6.050;2022-08-02T00:55:26;0.52;;;0.30;;
37411;SDS011;23278;52.110;6.050;2022-08-02T00:57:52;0.90;;;0.30;;
37411;SDS011;23278;52.110;6.050;2022-08-02T01:00:19;1.40;;;0.40;;
37411;SDS011;23278;52.110;6.050;2022-08-02T01:02:45;0.35;;;0.25;;
37411;SDS011;23278;52.110;6.050;2022-08-02T01:05:11;0.80;;;0.28;;
37411;SDS011;23278;52.110;6.050;2022-08-02T01:07:38;0.80;;;0.30;;
37411;SDS011;23278;52.110;6.050;2022-08-02T01:10:04;0.40;;;0.40;;
37411;SDS011;23278;52.110;6.050;2022-08-02T01:12:31;2.85;;;0.40;;
37411;SDS011;23278;52.110;6.050;2022-08-02T01:15:01;0.60;;;0.40;;
37411;SDS011;23278;52.110;6.050;2022-08-02T01:28:10;1.20;;;0.30;;
37411;SDS011;23278;52.110;6.050;2022-08-02T01:31:13;2.03;;;0.40;;
37411;SDS011;23278;52.110;6.050;2022-08-02T01:34:01;1.05;;;0.40;;
37411;SDS011;23278;52.110;6.050;2022-08-02T01:36:51;0.93;;;0.35;;
37411;SDS011;23278;52.110;6.050;2022-08-02T01:39:22;1.05;;;0.68;;
37411;SDS011;23278;52.110;6.050;2022-08-02T01:41:51;0.60;;;0.30;;
37411;SDS011;23278;52.110;6.050;2022-08-02T01:44:19;0.85;;;0.30;;
37411;SDS011;23278;52.110;6.050;2022-08-02T01:46:48;0.95;;;0.40;;
37411;SDS011;23278;52.110;6.050;2022-08-02T01:49:16;1.55;;;0.32;;
37411;SDS011;23278;52.110;6.050;2022-08-02T01:51:46;0.30;;;0.30;;
37411;SDS011;23278;52.110;6.050;2022-08-02T01:54:32;1.20;;;0.40;;
37411;SDS011;23278;52.110;6.050;2022-08-02T01:57:00;2.05;;;0.50;;
37411;SDS011;23278;52.110;6.050;2022-08-02T01:59:29;0.50;;;0.30;;
37411;SDS011;23278;52.110;6.050;2022-08-02T02:01:57;1.13;;;0.40;;
37411;SDS011;23278;52.110;6.050;2022-08-02T02:04:25;0.75;;;0.43;;
37411;SDS011;23278;52.110;6.050;2022-08-02T02:06:54;1.25;;;0.73;;
37411;SDS011;23278;52.110;6.050;2022-08-02T02:09:21;0.93;;;0.40;;
37411;SDS011;23278;52.110;6.050;2022-08-02T02:11:53;0.50;;;0.30;;
37411;SDS011;23278;52.110;6.050;2022-08-02T02:14:22;0.60;;;0.30;;
37411;SDS011;23278;52.110;6.050;2022-08-02T02:16:49;2.15;;;0.40;;
37411;SDS011;23278;52.110;6.050;2022-08-02T02:19:15;0.50;;;0.35;;
37411;SDS011;23278;52.110;6.050;2022-08-02T02:21:44;0.50;;;0.40;;
37411;SDS011;23278;52.110;6.050;2022-08-02T02:24:10;0.88;;;0.22;;
37411;SDS011;23278;52.110;6.050;2022-08-02T02:26:36;0.30;;;0.30;;
37411;SDS011;23278;52.110;6.050;2022-08-02T02:29:04;1.48;;;0.30;;
37411;SDS011;23278;52.110;6.050;2022-08-02T02:31:34;1.27;;;0.30;;
37411;SDS011;23278;52.110;6.050;2022-08-02T02:34:08;0.50;;;0.38;;
37411;SDS011;23278;52.110;6.050;2022-08-02T02:36:48;1.35;;;0.20;;
37411;SDS011;23278;52.110;6.050;2022-08-02T02:39:17;0.88;;;0.30;;
37411;SDS011;23278;52.110;6.050;2022-08-02T02:41:46;1.42;;;0.30;;
37411;SDS011;23278;52.110;6.050;2022-08-02T02:44:15;0.77;;;0.40;;
37411;SDS011;23278;52.110;6.050;2022-08-02T02:46:43;1.13;;;0.20;;
37411;SDS011;23278;52.110;6.050;2022-08-02T02:49:12;3.55;;;0.40;;
37411;SDS011;23278;52.110;6.050;2022-08-02T02:51:40;1.10;;;0.45;;
37411;SDS011;23278;52.110;6.050;2022-08-02T02:54:10;1.48;;;0.47;;
37411;SDS011;23278;52.110;6.050;2022-08-02T02:56:37;1.45;;;0.32;;
37411;SDS011;23278;52.110;6.050;2022-08-02T02:59:05;0.77;;;0.40;;
37411;SDS011;23278;52.110;6.050;2022-08-02T03:01:32;2.60;;;0.73;;
37411;SDS011;23278;52.110;6.050;2022-08-02T03:04:00;1.10;;;0.45;;
37411;SDS011;23278;52.110;6.050;2022-08-02T03:06:28;0.65;;;0.40;;
37411;SDS011;23278;52.110;6.050;2022-08-02T03:08:55;1.10;;;0.43;;
37411;SDS011;23278;52.110;6.050;2022-08-02T03:11:21;2.85;;;0.63;;
37411;SDS011;23278;52.110;6.050;2022-08-02T03:13:49;3.05;;;1.48;;
37411;SDS011;23278;52.110;6.050;2022-08-02T03:16:15;1.17;;;0.60;;
37411;SDS011;23278;52.110;6.050;2022-08-02T03:18:42;1.40;;;0.52;;
37411;SDS011;23278;52.110;6.050;2022-08-02T03:21:10;0.95;;;0.50;;
37411;SDS011;23278;52.110;6.050;2022-08-02T03:23:37;1.58;;;0.40;;
37411;SDS011;23278;52.110;6.050;2022-08-02T03:26:04;1.50;;;0.60;;
37411;SDS011;23278;52.110;6.050;2022-08-02T03:28:30;2.97;;;0.52;;
37411;SDS011;23278;52.110;6.050;2022-08-02T03:30:57;2.05;;;0.50;;
37411;SDS011;23278;52.110;6.050;2022-08-02T03:33:23;2.63;;;0.30;;
37411;SDS011;23278;52.110;6.050;2022-08-02T03:35:51;1.35;;;0.40;;
37411;SDS011;23278;52.110;6.050;2022-08-02T03:38:20;0.88;;;0.40;;
37411;SDS011;23278;52.110;6.050;2022-08-02T03:40:47;1.60;;;0.50;;
37411;SDS011;23278;52.110;6.050;2022-08-02T03:43:14;0.40;;;0.35;;
37411;SDS011;23278;52.110;6.050;2022-08-02T03:45:42;1.77;;;0.60;;
37411;SDS011;23278;52.110;6.050;2022-08-02T03:48:11;2.30;;;0.65;;
37411;SDS011;23278;52.110;6.050;2022-08-02T03:50:38;0.80;;;0.50;;
37411;SDS011;23278;52.110;6.050;2022-08-02T03:53:05;0.85;;;0.60;;
37411;SDS011;23278;52.110;6.050;2022-08-02T03:55:32;1.13;;;0.90;;
37411;SDS011;23278;52.110;6.050;2022-08-02T03:57:59;1.30;;;0.50;;
37411;SDS011;23278;52.110;6.050;2022-08-02T04:00:25;1.25;;;0.50;;
37411;SDS011;23278;52.110;6.050;2022-08-02T04:02:51;2.08;;;0.73;;
37411;SDS011;23278;52.110;6.050;2022-08-02T04:05:18;0.85;;;0.60;;
37411;SDS011;23278;52.110;6.050;2022-08-02T04:07:44;1.10;;;0.55;;
37411;SDS011;23278;52.110;6.050;2022-08-02T04:10:12;1.80;;;0.80;;
37411;SDS011;23278;52.110;6.050;2022-08-02T04:12:38;1.38;;;0.68;;
37411;SDS011;23278;52.110;6.050;2022-08-02T04:15:04;2.00;;;0.70;;
37411;SDS011;23278;52.110;6.050;2022-08-02T04:17:32;1.42;;;0.60;;
37411;SDS011;23278;52.110;6.050;2022-08-02T04:20:06;1.23;;;0.50;;
37411;SDS011;23278;52.110;6.050;2022-08-02T04:22:43;1.00;;;0.50;;
37411;SDS011;23278;52.110;6.050;2022-08-02T04:25:22;1.02;;;0.50;;
37411;SDS011;23278;52.110;6.050;2022-08-02T04:27:50;1.35;;;0.70;;
37411;SDS011;23278;52.110;6.050;2022-08-02T04:30:17;1.20;;;0.50;;
37411;SDS011;23278;52.110;6.050;2022-08-02T04:32:44;2.50;;;0.82;;
37411;SDS011;23278;52.110;6.050;2022-08-02T04:35:11;1.15;;;0.90;;
37411;SDS011;23278;52.110;6.050;2022-08-02T04:37:38;1.77;;;0.57;;
37411;SDS011;23278;52.110;6.050;2022-08-02T04:40:08;1.58;;;0.60;;
37411;SDS011;23278;52.110;6.050;2022-08-02T04:42:35;4.10;;;0.60;;
37411;SDS011;23278;52.110;6.050;2022-08-02T04:45:01;0.80;;;0.50;;
37411;SDS011;23278;52.110;6.050;2022-08-02T04:47:28;0.95;;;0.45;;
37411;SDS011;23278;52.110;6.050;2022-08-02T04:49:54;1.02;;;0.40;;
37411;SDS011;23278;52.110;6.050;2022-08-02T04:52:20;1.67;;;0.70;;
37411;SDS011;23278;52.110;6.050;2022-08-02T04:54:46;1.60;;;0.63;;
37411;SDS011;23278;52.110;6.050;2022-08-02T04:57:12;2.22;;;0.50;;
37411;SDS011;23278;52.110;6.050;2022-08-02T04:59:58;1.17;;;0.50;;
37411;SDS011;23278;52.110;6.050;2022-08-02T05:02:24;1.08;;;0.70;;
37411;SDS011;23278;52.110;6.050;2022-08-02T05:04:50;1.10;;;0.50;;
37411;SDS011;23278;52.110;6.050;2022-08-02T05:07:16;1.35;;;0.75;;
37411;SDS011;23278;52.110;6.050;2022-08-02T05:09:42;0.93;;;0.40;;
37411;SDS011;23278;52.110;6.050;2022-08-02T05:12:08;1.98;;;0.60;;
37411;SDS011;23278;52.110;6.050;2022-08-02T05:14:34;0.80;;;0.57;;
37411;SDS011;23278;52.110;6.050;2022-08-02T05:16:59;1.45;;;0.60;;
37411;SDS011;23278;52.110;6.050;2022-08-02T05:19:25;0.90;;;0.50;;
37411;SDS011;23278;52.110;6.050;2022-08-02T05:21:51;1.23;;;0.50;;
37411;SDS011;23278;52.110;6.050;2022-08-02T05:24:17;3.72;;;0.70;;
37411;SDS011;23278;52.110;6.050;2022-08-02T05:26:43;1.58;;;0.60;;
37411;SDS011;23278;52.110;6.050;2022-08-02T05:29:09;2.63;;;1.17;;
37411;SDS011;23278;52.110;6.050;2022-08-02T05:31:35;1.02;;;0.50;;
37411;SDS011;23278;52.110;6.050;2022-08-02T05:34:00;2.15;;;0.93;;
37411;SDS011;23278;52.110;6.050;2022-08-02T05:36:26;2.22;;;0.50;;
37411;SDS011;23278;52.110;6.050;2022-08-02T05:38:52;2.20;;;0.63;;
37411;SDS011;23278;52.110;6.050;2022-08-02T05:41:19;1.75;;;0.70;;
37411;SDS011;23278;52.110;6.050;2022-08-02T05:43:45;2.05;;;0.60;;
37411;SDS011;23278;52.110;6.050;2022-08-02T05:46:11;1.77;;;0.80;;
37411;SDS011;23278;52.110;6.050;2022-08-02T05:48:37;1.50;;;0.80;;
37411;SDS011;23278;52.110;6.050;2022-08-02T05:51:27;4.20;;;1.00;;
37411;SDS011;23278;52.110;6.050;2022-08-02T05:54:01;2.92;;;1.00;;
37411;SDS011;23278;52.110;6.050;2022-08-02T05:56:50;4.15;;;0.98;;
37411;SDS011;23278;52.110;6.050;2022-08-02T05:59:31;2.60;;;0.73;;
37411;SDS011;23278;52.110;6.050;2022-08-02T06:02:00;3.03;;;0.80;;
37411;SDS011;23278;52.110;6.050;2022-08-02T06:04:32;3.00;;;0.68;;
37411;SDS011;23278;52.110;6.050;2022-08-02T06:07:13;2.22;;;1.00;;
37411;SDS011;23278;52.110;6.050;2022-08-02T06:09:40;2.05;;;1.00;;
37411;SDS011;23278;52.110;6.050;2022-08-02T06:12:08;2.47;;;0.70;;
37411;SDS011;23278;52.110;6.050;2022-08-02T06:14:37;2.05;;;0.93;;
37411;SDS011;23278;52.110;6.050;2022-08-02T06:17:05;1.85;;;0.80;;
37411;SDS011;23278;52.110;6.050;2022-08-02T06:19:32;3.30;;;0.85;;
37411;SDS011;23278;52.110;6.050;2022-08-02T06:22:00;2.72;;;1.00;;
37411;SDS011;23278;52.110;6.050;2022-08-02T06:24:45;2.40;;;1.25;;
37411;SDS011;23278;52.110;6.050;2022-08-02T06:27:14;4.80;;;1.58;;
37411;SDS011;23278;52.110;6.050;2022-08-02T06:29:43;4.40;;;2.17;;
37411;SDS011;23278;52.110;6.050;2022-08-02T06:34:38;3.13;;;1.45;;
37411;SDS011;23278;52.110;6.050;2022-08-02T06:39:43;5.15;;;2.00;;
37411;SDS011;23278;52.110;6.050;2022-08-02T06:42:24;3.17;;;1.40;;
37411;SDS011;23278;52.110;6.050;2022-08-02T06:44:55;2.25;;;1.55;;
37411;SDS011;23278;52.110;6.050;2022-08-02T06:47:21;5.05;;;1.67;;
37411;SDS011;23278;52.110;6.050;2022-08-02T06:49:47;5.50;;;1.73;;
37411;SDS011;23278;52.110;6.050;2022-08-02T06:52:13;3.33;;;1.98;;
37411;SDS011;23278;52.110;6.050;2022-08-02T06:54:39;3.33;;;1.25;;
37411;SDS011;23278;52.110;6.050;2022-08-02T06:57:07;2.40;;;1.10;;
37411;SDS011;23278;52.110;6.050;2022-08-02T06:59:34;3.60;;;0.90;;
37411;SDS011;23278;52.110;6.050;2022-08-02T07:01:59;3.92;;;1.55;;
37411;SDS011;23278;52.110;6.050;2022-08-02T07:04:26;3.72;;;1.20;;
37411;SDS011;23278;52.110;6.050;2022-08-02T07:06:53;4.18;;;1.02;;
37411;SDS011;23278;52.110;6.050;2022-08-02T07:09:21;4.57;;;2.00;;
37411;SDS011;23278;52.110;6.050;2022-08-02T07:11:46;3.63;;;1.45;;
37411;SDS011;23278;52.110;6.050;2022-08-02T07:14:12;7.05;;;1.88;;
37411;SDS011;23278;52.110;6.050;2022-08-02T07:16:38;4.45;;;1.50;;
37411;SDS011;23278;52.110;6.050;2022-08-02T07:19:04;6.03;;;1.38;;
37411;SDS011;23278;52.110;6.050;2022-08-02T07:21:30;3.83;;;1.05;;
37411;SDS011;23278;52.110;6.050;2022-08-02T07:23:56;5.50;;;1.80;;
37411;SDS011;23278;52.110;6.050;2022-08-02T07:26:22;2.88;;;1.00;;
37411;SDS011;23278;52.110;6.050;2022-08-02T07:28:47;5.60;;;1.38;;
37411;SDS011;23278;52.110;6.050;2022-08-02T07:31:13;3.55;;;1.30;;
37411;SDS011;23278;52.110;6.050;2022-08-02T07:33:39;5.32;;;2.25;;
37411;SDS011;23278;52.110;6.050;2022-08-02T07:36:06;4.68;;;1.30;;
37411;SDS011;23278;52.110;6.050;2022-08-02T07:38:33;1.80;;;0.98;;
37411;SDS011;23278;52.110;6.050;2022-08-02T07:40:59;2.78;;;0.90;;
37411;SDS011;23278;52.110;6.050;2022-08-02T07:43:24;2.33;;;0.70;;
37411;SDS011;23278;52.110;6.050;2022-08-02T07:45:50;4.68;;;1.38;;
37411;SDS011;23278;52.110;6.050;2022-08-02T07:48:16;2.50;;;1.33;;
37411;SDS011;23278;52.110;6.050;2022-08-02T07:50:42;2.92;;;1.40;;
37411;SDS011;23278;52.110;6.050;2022-08-02T07:53:08;4.10;;;1.45;;
37411;SDS011;23278;52.110;6.050;2022-08-02T07:55:34;6.70;;;1.00;;
37411;SDS011;23278;52.110;6.050;2022-08-02T07:58:00;6.75;;;1.00;;
37411;SDS011;23278;52.110;6.050;2022-08-02T08:00:26;3.38;;;1.50;;
37411;SDS011;23278;52.110;6.050;2022-08-02T08:02:52;3.58;;;0.80;;
37411;SDS011;23278;52.110;6.050;2022-08-02T08:05:18;5.47;;;1.27;;
37411;SDS011;23278;52.110;6.050;2022-08-02T08:07:44;3.90;;;1.55;;
37411;SDS011;23278;52.110;6.050;2022-08-02T08:10:10;2.65;;;1.02;;
37411;SDS011;23278;52.110;6.050;2022-08-02T08:12:36;3.17;;;1.10;;
37411;SDS011;23278;52.110;6.050;2022-08-02T08:15:02;3.72;;;0.95;;
37411;SDS011;23278;52.110;6.050;2022-08-02T08:17:28;2.47;;;0.95;;
37411;SDS011;23278;52.110;6.050;2022-08-02T08:19:54;3.83;;;1.20;;
37411;SDS011;23278;52.110;6.050;2022-08-02T08:22:22;3.25;;;1.35;;
37411;SDS011;23278;52.110;6.050;2022-08-02T08:24:49;1.40;;;0.80;;
37411;SDS011;23278;52.110;6.050;2022-08-02T08:27:16;3.00;;;1.20;;
37411;SDS011;23278;52.110;6.050;2022-08-02T08:29:42;6.63;;;2.10;;
37411;SDS011;23278;52.110;6.050;2022-08-02T08:32:10;2.85;;;1.15;;
37411;SDS011;23278;52.110;6.050;2022-08-02T08:34:36;1.95;;;1.10;;
37411;SDS011;23278;52.110;6.050;2022-08-02T08:37:01;2.58;;;1.10;;
37411;SDS011;23278;52.110;6.050;2022-08-02T08:39:28;3.03;;;0.90;;
37411;SDS011;23278;52.110;6.050;2022-08-02T08:41:54;2.40;;;0.90;;
37411;SDS011;23278;52.110;6.050;2022-08-02T08:44:20;2.08;;;0.98;;
37411;SDS011;23278;52.110;6.050;2022-08-02T08:46:46;1.90;;;0.90;;
37411;SDS011;23278;52.110;6.050;2022-08-02T08:51:55;1.60;;;0.70;;
37411;SDS011;23278;52.110;6.050;2022-08-02T08:54:23;2.85;;;0.80;;
37411;SDS011;23278;52.110;6.050;2022-08-02T08:56:52;5.72;;;0.82;;
37411;SDS011;23278;52.110;6.050;2022-08-02T08:59:19;4.32;;;1.45;;
37411;SDS011;23278;52.110;6.050;2022-08-02T09:01:45;3.58;;;1.17;;
37411;SDS011;23278;52.110;6.050;2022-08-02T09:04:12;4.07;;;0.95;;
37411;SDS011;23278;52.110;6.050;2022-08-02T09:06:38;1.88;;;1.00;;
37411;SDS011;23278;52.110;6.050;2022-08-02T09:09:04;2.35;;;1.10;;
37411;SDS011;23278;52.110;6.050;2022-08-02T09:11:30;3.67;;;0.90;;
37411;SDS011;23278;52.110;6.050;2022-08-02T09:14:00;2.40;;;1.00;;
37411;SDS011;23278;52.110;6.050;2022-08-02T09:16:34;4.15;;;1.40;;
37411;SDS011;23278;52.110;6.050;2022-08-02T09:19:17;2.70;;;1.10;;
37411;SDS011;23278;52.110;6.050;2022-08-02T09:21:48;1.47;;;0.70;;
37411;SDS011;23278;52.110;6.050;2022-08-02T09:24:16;2.53;;;1.30;;
37411;SDS011;23278;52.110;6.050;2022-08-02T09:26:46;2.22;;;1.27;;
37411;SDS011;23278;52.110;6.050;2022-08-02T09:29:13;2.10;;;1.00;;
37411;SDS011;23278;52.110;6.050;2022-08-02T09:31:40;2.55;;;1.10;;
37411;SDS011;23278;52.110;6.050;2022-08-02T09:34:07;6.03;;;1.80;;
37411;SDS011;23278;52.110;6.050;2022-08-02T09:36:40;5.95;;;1.13;;
37411;SDS011;23278;52.110;6.050;2022-08-02T09:39:08;2.58;;;0.80;;
37411;SDS011;23278;52.110;6.050;2022-08-02T09:41:38;6.55;;;0.95;;
37411;SDS011;23278;52.110;6.050;2022-08-02T09:44:06;2.63;;;1.25;;
37411;SDS011;23278;52.110;6.050;2022-08-02T09:46:37;1.83;;;0.70;;
37411;SDS011;23278;52.110;6.050;2022-08-02T09:54:18;2.25;;;0.60;;
37411;SDS011;23278;52.110;6.050;2022-08-02T09:56:49;1.85;;;0.60;;
37411;SDS011;23278;52.110;6.050;2022-08-02T09:59:17;0.82;;;0.50;;
37411;SDS011;23278;52.110;6.050;2022-08-02T10:01:45;1.45;;;0.52;;
37411;SDS011;23278;52.110;6.050;2022-08-02T10:04:13;1.10;;;0.52;;
37411;SDS011;23278;52.110;6.050;2022-08-02T10:06:41;1.33;;;0.60;;
37411;SDS011;23278;52.110;6.050;2022-08-02T10:11:37;1.58;;;0.52;;
37411;SDS011;23278;52.110;6.050;2022-08-02T10:14:04;1.67;;;0.60;;
37411;SDS011;23278;52.110;6.050;2022-08-02T10:16:35;4.05;;;0.63;;
37411;SDS011;23278;52.110;6.050;2022-08-02T10:19:02;1.30;;;0.50;;
37411;SDS011;23278;52.110;6.050;2022-08-02T10:21:45;1.15;;;0.50;;
37411;SDS011;23278;52.110;6.050;2022-08-02T10:24:23;1.20;;;0.50;;
37411;SDS011;23278;52.110;6.050;2022-08-02T10:26:51;3.47;;;0.90;;
37411;SDS011;23278;52.110;6.050;2022-08-02T10:29:20;1.73;;;0.73;;
37411;SDS011;23278;52.110;6.050;2022-08-02T10:32:26;1.38;;;0.57;;
37411;SDS011;23278;52.110;6.050;2022-08-02T10:34:47;2.40;;;0.60;;
37411;SDS011;23278;52.110;6.050;2022-08-02T10:37:18;3.40;;;0.80;;
37411;SDS011;23278;52.110;6.050;2022-08-02T10:39:47;1.13;;;0.50;;
37411;SDS011;23278;52.110;6.050;2022-08-02T10:45:11;2.80;;;0.70;;
37411;SDS011;23278;52.110;6.050;2022-08-02T10:56:05;1.42;;;0.50;;
37411;SDS011;23278;52.110;6.050;2022-08-02T10:58:31;1.38;;;0.50;;
37411;SDS011;23278;52.110;6.050;2022-08-02T11:01:43;3.20;;;0.77;;
37411;SDS011;23278;52.110;6.050;2022-08-02T11:03:58;1.17;;;0.65;;
37411;SDS011;23278;52.110;6.050;2022-08-02T11:06:24;1.23;;;0.60;;
37411;SDS011;23278;52.110;6.050;2022-08-02T11:09:11;3.28;;;0.70;;
37411;SDS011;23278;52.110;6.050;2022-08-02T11:12:26;2.45;;;0.60;;
37411;SDS011;23278;52.110;6.050;2022-08-02T11:14:56;2.30;;;0.70;;
37411;SDS011;23278;52.110;6.050;2022-08-02T11:17:24;0.98;;;0.40;;
37411;SDS011;23278;52.110;6.050;2022-08-02T11:22:40;3.85;;;0.50;;
37411;SDS011;23278;52.110;6.050;2022-08-02T11:27:49;1.38;;;0.50;;
37411;SDS011;23278;52.110;6.050;2022-08-02T11:30:19;10.63;;;0.90;;
37411;SDS011;23278;52.110;6.050;2022-08-02T11:32:46;0.93;;;0.60;;
37411;SDS011;23278;52.110;6.050;2022-08-02T11:35:13;5.82;;;0.70;;
37411;SDS011;23278;52.110;6.050;2022-08-02T11:37:43;1.02;;;0.50;;
37411;SDS011;23278;52.110;6.050;2022-08-02T11:40:13;1.75;;;0.60;;
37411;SDS011;23278;52.110;6.050;2022-08-02T11:42:42;0.85;;;0.60;;
37411;SDS011;23278;52.110;6.050;2022-08-02T11:45:10;1.10;;;0.50;;
37411;SDS011;23278;52.110;6.050;2022-08-02T11:47:44;2.70;;;0.50;;
37411;SDS011;23278;52.110;6.050;2022-08-02T11:50:15;0.85;;;0.63;;
37411;SDS011;23278;52.110;6.050;2022-08-02T11:52:42;0.65;;;0.40;;
37411;SDS011;23278;52.110;6.050;2022-08-02T11:55:09;0.95;;;0.40;;
37411;SDS011;23278;52.110;6.050;2022-08-02T11:57:36;1.35;;;0.52;;
37411;SDS011;23278;52.110;6.050;2022-08-02T12:00:03;0.80;;;0.45;;
37411;SDS011;23278;52.110;6.050;2022-08-02T12:02:43;1.17;;;0.40;;
37411;SDS011;23278;52.110;6.050;2022-08-02T12:05:13;2.08;;;0.52;;
37411;SDS011;23278;52.110;6.050;2022-08-02T12:07:41;1.58;;;0.40;;
37411;SDS011;23278;52.110;6.050;2022-08-02T12:10:10;0.60;;;0.40;;
37411;SDS011;23278;52.110;6.050;2022-08-02T12:12:51;0.90;;;0.40;;
37411;SDS011;23278;52.110;6.050;2022-08-02T12:15:43;1.08;;;0.63;;
37411;SDS011;23278;52.110;6.050;2022-08-02T12:18:11;0.85;;;0.40;;
37411;SDS011;23278;52.110;6.050;2022-08-02T12:21:00;0.93;;;0.60;;
37411;SDS011;23278;52.110;6.050;2022-08-02T12:23:26;0.65;;;0.40;;
37411;SDS011;23278;52.110;6.050;2022-08-02T12:26:02;0.88;;;0.35;;
37411;SDS011;23278;52.110;6.050;2022-08-02T12:28:34;3.20;;;0.50;;
37411;SDS011;23278;52.110;6.050;2022-08-02T12:31:03;0.75;;;0.40;;
37411;SDS011;23278;52.110;6.050;2022-08-02T12:33:43;0.50;;;0.30;;
37411;SDS011;23278;52.110;6.050;2022-08-02T12:36:24;1.75;;;0.40;;
37411;SDS011;23278;52.110;6.050;2022-08-02T12:41:21;3.03;;;0.50;;
37411;SDS011;23278;52.110;6.050;2022-08-02T12:43:48;0.60;;;0.38;;
37411;SDS011;23278;52.110;6.050;2022-08-02T12:46:18;3.90;;;0.40;;
37411;SDS011;23278;52.110;6.050;2022-08-02T12:48:45;0.80;;;0.50;;
37411;SDS011;23278;52.110;6.050;2022-08-02T12:51:28;1.98;;;0.45;;
37411;SDS011;23278;52.110;6.050;2022-08-02T12:54:09;2.10;;;0.50;;
37411;SDS011;23278;52.110;6.050;2022-08-02T12:56:38;0.50;;;0.40;;
37411;SDS011;23278;52.110;6.050;2022-08-02T12:59:04;0.52;;;0.30;;
37411;SDS011;23278;52.110;6.050;2022-08-02T13:01:31;1.75;;;0.40;;
37411;SDS011;23278;52.110;6.050;2022-08-02T13:03:57;1.38;;;0.40;;
37411;SDS011;23278;52.110;6.050;2022-08-02T13:06:23;0.82;;;0.30;;
37411;SDS011;23278;52.110;6.050;2022-08-02T13:08:49;2.28;;;0.30;;
37411;SDS011;23278;52.110;6.050;2022-08-02T13:11:19;1.25;;;0.30;;
37411;SDS011;23278;52.110;6.050;2022-08-02T13:13:46;1.67;;;0.50;;
37411;SDS011;23278;52.110;6.050;2022-08-02T13:16:13;2.17;;;0.35;;
37411;SDS011;23278;52.110;6.050;2022-08-02T13:18:39;3.17;;;1.05;;
37411;SDS011;23278;52.110;6.050;2022-08-02T13:21:06;0.40;;;0.35;;
37411;SDS011;23278;52.110;6.050;2022-08-02T13:23:33;0.85;;;0.30;;
37411;SDS011;23278;52.110;6.050;2022-08-02T13:26:00;0.65;;;0.30;;
37411;SDS011;23278;52.110;6.050;2022-08-02T13:28:26;0.32;;;0.30;;
37411;SDS011;23278;52.110;6.050;2022-08-02T13:30:52;2.05;;;0.30;;
37411;SDS011;23278;52.110;6.050;2022-08-02T13:33:18;1.25;;;0.40;;
37411;SDS011;23278;52.110;6.050;2022-08-02T13:35:45;0.60;;;0.30;;
37411;SDS011;23278;52.110;6.050;2022-08-02T13:38:12;0.60;;;0.38;;
37411;SDS011;23278;52.110;6.050;2022-08-02T13:40:37;0.77;;;0.40;;
37411;SDS011;23278;52.110;6.050;2022-08-02T13:43:24;2.85;;;0.45;;
37411;SDS011;23278;52.110;6.050;2022-08-02T13:45:50;0.90;;;0.40;;
37411;SDS011;23278;52.110;6.050;2022-08-02T13:48:16;1.75;;;0.50;;
37411;SDS011;23278;52.110;6.050;2022-08-02T13:50:43;1.30;;;0.50;;
37411;SDS011;23278;52.110;6.050;2022-08-02T13:53:09;1.20;;;0.43;;
37411;SDS011;23278;52.110;6.050;2022-08-02T13:55:34;0.70;;;0.32;;
37411;SDS011;23278;52.110;6.050;2022-08-02T13:58:00;0.55;;;0.40;;
37411;SDS011;23278;52.110;6.050;2022-08-02T14:00:26;1.08;;;0.40;;
37411;SDS011;23278;52.110;6.050;2022-08-02T14:02:52;2.15;;;0.40;;
37411;SDS011;23278;52.110;6.050;2022-08-02T14:05:18;1.75;;;0.30;;
37411;SDS011;23278;52.110;6.050;2022-08-02T14:07:44;2.95;;;0.40;;
37411;SDS011;23278;52.110;6.050;2022-08-02T14:10:10;1.90;;;0.30;;
37411;SDS011;23278;52.110;6.050;2022-08-02T14:12:36;0.70;;;0.30;;
37411;SDS011;23278;52.110;6.050;2022-08-02T14:15:05;1.02;;;0.30;;
37411;SDS011;23278;52.110;6.050;2022-08-02T14:17:31;2.97;;;0.40;;
37411;SDS011;23278;52.110;6.050;2022-08-02T14:19:57;0.98;;;0.30;;
37411;SDS011;23278;52.110;6.050;2022-08-02T14:22:23;0.77;;;0.38;;
37411;SDS011;23278;52.110;6.050;2022-08-02T14:24:48;0.98;;;0.30;;
37411;SDS011;23278;52.110;6.050;2022-08-02T14:27:14;1.98;;;0.50;;
37411;SDS011;23278;52.110;6.050;2022-08-02T14:29:40;0.63;;;0.40;;
37411;SDS011;23278;52.110;6.050;2022-08-02T14:32:06;3.25;;;0.30;;
37411;SDS011;23278;52.110;6.050;2022-08-02T14:34:32;2.58;;;0.30;;
37411;SDS011;23278;52.110;6.050;2022-08-02T14:36:58;1.45;;;0.20;;
37411;SDS011;23278;52.110;6.050;2022-08-02T14:39:24;1.70;;;0.40;;
37411;SDS011;23278;52.110;6.050;2022-08-02T14:41:50;0.82;;;0.28;;
37411;SDS011;23278;52.110;6.050;2022-08-02T14:44:16;0.60;;;0.40;;
37411;SDS011;23278;52.110;6.050;2022-08-02T14:46:42;1.35;;;0.30;;
37411;SDS011;23278;52.110;6.050;2022-08-02T14:49:09;0.63;;;0.30;;
37411;SDS011;23278;52.110;6.050;2022-08-02T14:51:36;2.55;;;0.38;;
37411;SDS011;23278;52.110;6.050;2022-08-02T14:54:03;0.75;;;0.40;;
37411;SDS011;23278;52.110;6.050;2022-08-02T14:56:31;1.10;;;0.35;;
37411;SDS011;23278;52.110;6.050;2022-08-02T14:58:57;0.45;;;0.35;;
37411;SDS011;23278;52.110;6.050;2022-08-02T15:01:23;1.33;;;0.47;;
37411;SDS011;23278;52.110;6.050;2022-08-02T15:03:49;1.50;;;0.40;;
37411;SDS011;23278;52.110;6.050;2022-08-02T15:06:16;1.08;;;0.40;;
37411;SDS011;23278;52.110;6.050;2022-08-02T15:08:42;1.45;;;0.30;;
37411;SDS011;23278;52.110;6.050;2022-08-02T15:11:11;0.90;;;0.50;;
37411;SDS011;23278;52.110;6.050;2022-08-02T15:13:37;1.48;;;0.50;;
37411;SDS011;23278;52.110;6.050;2022-08-02T15:16:03;1.27;;;0.30;;
37411;SDS011;23278;52.110;6.050;2022-08-02T15:18:29;2.30;;;0.40;;
37411;SDS011;23278;52.110;6.050;2022-08-02T15:20:55;0.70;;;0.40;;
37411;SDS011;23278;52.110;6.050;2022-08-02T15:23:21;3.33;;;0.40;;
37411;SDS011;23278;52.110;6.050;2022-08-02T15:25:49;5.38;;;0.60;;
37411;SDS011;23278;52.110;6.050;2022-08-02T15:28:15;2.53;;;0.40;;
37411;SDS011;23278;52.110;6.050;2022-08-02T15:30:41;1.25;;;0.50;;
37411;SDS011;23278;52.110;6.050;2022-08-02T15:33:07;3.92;;;0.73;;
37411;SDS011;23278;52.110;6.050;2022-08-02T15:35:33;2.67;;;0.50;;
37411;SDS011;23278;52.110;6.050;2022-08-02T15:37:59;3.42;;;0.60;;
37411;SDS011;23278;52.110;6.050;2022-08-02T15:40:25;2.88;;;0.45;;
37411;SDS011;23278;52.110;6.050;2022-08-02T15:42:51;2.00;;;0.40;;